Terminal Aerodrome Forecast
Issued by NWS St Louis, MO

Home | Current Version | Previous Version | Text Only | Print | Product List | Glossary On
Versions: 1 2 3 4 5 6 7 8 9 10 11 12 13 14 15 16 17 18 19 20 21 22 23 24 25 26 27
000
FTUS43 KLSX 141500 AAA
TAFSTL
TAF AMD
KSTL 141508Z 1415/1518 VRB04KT P6SM SCT080
      TEMPO 1416/1418 BKN080
     FM141800 14005KT P6SM FEW040 SCT080
     FM150000 14005KT P6SM SCT100 BKN250
     FM151400 18007KT P6SM VCSH SCT040 BKN080=

USA.gov is the U.S. government's official web portal to all federal, state and local government web resources and services.